createdAt,value
2022-08-26T00:01:41.769Z,100914.00
2022-08-26T00:04:34.304Z,100918.06
2022-08-26T00:07:24.481Z,100914.21
2022-08-26T00:10:15.097Z,100920.20
2022-08-26T00:13:05.994Z,100917.88
2022-08-26T00:15:57.085Z,100918.27
2022-08-26T00:18:46.780Z,100916.55
2022-08-26T00:21:37.579Z,100920.98
2022-08-26T00:24:31.537Z,100916.84
2022-08-26T00:27:21.676Z,100915.72
2022-08-26T00:30:22.735Z,100912.02
2022-08-26T00:33:17.587Z,100912.35
2022-08-26T00:36:09.496Z,100912.83
2022-08-26T00:39:12.091Z,100912.23
2022-08-26T00:42:03.188Z,100911.02
2022-08-26T00:44:53.914Z,100912.98
2022-08-26T00:47:49.278Z,100912.63
2022-08-26T00:50:44.920Z,100913.45
2022-08-26T00:53:41.465Z,100919.39
2022-08-26T00:56:38.368Z,100919.77
2022-08-26T00:59:32.971Z,100918.38
2022-08-26T01:02:25.085Z,100912.55
2022-08-26T01:05:16.146Z,100908.59
2022-08-26T01:08:07.474Z,100907.63
2022-08-26T01:10:59.719Z,100900.89
2022-08-26T01:13:50.962Z,100897.57
2022-08-26T01:16:44.351Z,100895.27
2022-08-26T01:19:39.586Z,100897.73
2022-08-26T01:22:36.738Z,100892.52
2022-08-26T01:25:30.445Z,100891.14
2022-08-26T01:28:24.733Z,100894.59
2022-08-26T01:31:21.712Z,100895.25
2022-08-26T01:34:18.408Z,100897.97
2022-08-26T01:37:15.656Z,100897.05
2022-08-26T01:40:08.691Z,100897.76
2022-08-26T01:43:00.155Z,100893.39
2022-08-26T01:45:54.583Z,100894.80
2022-08-26T01:48:47.319Z,100890.83
2022-08-26T01:51:45.878Z,100889.85
2022-08-26T01:54:38.852Z,100888.06
2022-08-26T01:57:31.908Z,100885.88
2022-08-26T02:00:23.983Z,100879.99
2022-08-26T02:03:22.367Z,100873.84
2022-08-26T02:06:13.033Z,100872.69
2022-08-26T02:09:06.115Z,100870.84
2022-08-26T02:11:57.319Z,100874.46
2022-08-26T02:14:52.054Z,100877.46
2022-08-26T02:17:45.103Z,100876.44
2022-08-26T02:20:35.797Z,100874.14
2022-08-26T02:23:28.430Z,100877.55
2022-08-26T02:26:21.918Z,100875.82
2022-08-26T02:29:17.787Z,100875.92
2022-08-26T02:32:13.055Z,100873.66
2022-08-26T02:35:10.188Z,100872.27
2022-08-26T02:38:01.682Z,100872.80
2022-08-26T02:40:54.950Z,100870.39
2022-08-26T02:43:45.772Z,100870.45
2022-08-26T02:46:35.945Z,100871.76
2022-08-26T02:49:31.231Z,100876.50
2022-08-26T02:52:22.020Z,100873.82
2022-08-26T02:55:12.831Z,100871.54
2022-08-26T02:58:03.576Z,100874.27
2022-08-26T03:00:54.325Z,100876.65
2022-08-26T03:03:44.853Z,100871.52
2022-08-26T03:06:35.323Z,100872.83
2022-08-26T03:09:29.901Z,100870.86
2022-08-26T03:12:20.471Z,100872.05
2022-08-26T03:15:16.398Z,100878.16
2022-08-26T03:18:09.097Z,100871.88
2022-08-26T03:21:06.278Z,100870.90
2022-08-26T03:23:59.440Z,100869.81
2022-08-26T03:27:00.297Z,100866.86
2022-08-26T03:30:14.793Z,100862.71
2022-08-26T03:33:06.478Z,100860.37
2022-08-26T03:35:57.257Z,100854.30
2022-08-26T03:38:47.932Z,100850.96
2022-08-26T03:41:39.084Z,100850.97
2022-08-26T03:44:29.690Z,100848.23
2022-08-26T03:47:20.904Z,100846.61
2022-08-26T03:50:14.175Z,100846.81
2022-08-26T03:53:07.505Z,100846.12
2022-08-26T03:56:03.609Z,100846.88
2022-08-26T03:58:55.006Z,100850.67
2022-08-26T04:01:45.259Z,100855.85
2022-08-26T04:04:36.112Z,100854.83
2022-08-26T04:07:26.702Z,100850.80
2022-08-26T04:10:22.186Z,100849.61
2022-08-26T04:13:19.555Z,100845.71
2022-08-26T04:16:10.377Z,100845.03
2022-08-26T04:19:03.308Z,100846.82
2022-08-26T04:21:55.043Z,100848.75
2022-08-26T04:24:45.692Z,100846.40
2022-08-26T04:27:36.190Z,100844.54
2022-08-26T04:30:28.958Z,100844.16
2022-08-26T04:33:18.956Z,100852.77
2022-08-26T04:36:23.694Z,100854.14
2022-08-26T04:39:18.733Z,100852.52
2022-08-26T04:42:11.079Z,100846.15
2022-08-26T04:45:02.366Z,100851.34
2022-08-26T04:47:59.485Z,100850.75
2022-08-26T04:50:51.603Z,100851.66
2022-08-26T04:53:42.293Z,100848.90
2022-08-26T04:56:35.337Z,100851.08
2022-08-26T04:59:25.930Z,100848.92
2022-08-26T05:02:16.278Z,100853.36
2022-08-26T05:05:07.951Z,100846.31
2022-08-26T05:08:00.966Z,100838.41
2022-08-26T05:10:56.372Z,100839.74
2022-08-26T05:13:50.001Z,100840.74
2022-08-26T05:16:40.981Z,100837.13
2022-08-26T05:19:32.683Z,100839.86
2022-08-26T05:22:23.555Z,100835.88
2022-08-26T05:25:16.124Z,100836.60
2022-08-26T05:28:08.279Z,100836.17
2022-08-26T05:31:02.220Z,100840.30
2022-08-26T05:33:53.081Z,100847.36
2022-08-26T05:36:45.279Z,100851.52
2022-08-26T05:39:37.091Z,100850.03
2022-08-26T05:42:28.750Z,100857.41
2022-08-26T05:45:19.426Z,100862.77
2022-08-26T05:48:10.547Z,100867.48
2022-08-26T05:51:08.611Z,100868.65
2022-08-26T05:54:00.416Z,100870.99
2022-08-26T05:56:52.482Z,100870.06
2022-08-26T05:59:45.519Z,100865.52
2022-08-26T06:02:35.875Z,100863.14
2022-08-26T06:05:25.876Z,100865.88
2022-08-26T06:08:21.296Z,100868.63
2022-08-26T06:11:18.708Z,100865.33
2022-08-26T06:14:10.962Z,100863.15
2022-08-26T06:17:03.036Z,100860.58
2022-08-26T06:19:53.278Z,100863.18
2022-08-26T06:23:01.683Z,100870.20
2022-08-26T06:25:53.624Z,100876.43
2022-08-26T06:28:45.561Z,100876.20
2022-08-26T06:31:38.281Z,100880.85
2022-08-26T06:34:31.098Z,100878.61
2022-08-26T06:37:21.242Z,100876.14
2022-08-26T06:40:12.732Z,100874.25
2022-08-26T06:43:02.857Z,100872.36
2022-08-26T06:46:01.031Z,100873.66
2022-08-26T06:48:52.215Z,100870.12
2022-08-26T06:51:43.727Z,100870.35
2022-08-26T06:54:33.409Z,100872.91
2022-08-26T06:57:23.424Z,100871.95
2022-08-26T07:00:15.553Z,100868.10
2022-08-26T07:03:06.182Z,100869.69
2022-08-26T07:06:04.346Z,100872.84
2022-08-26T07:09:01.487Z,100875.19
2022-08-26T07:11:55.718Z,100873.42
2022-08-26T07:14:47.491Z,100874.13
2022-08-26T07:17:39.268Z,100876.27
2022-08-26T07:20:30.540Z,100872.20
2022-08-26T07:23:21.137Z,100872.08
2022-08-26T07:26:16.420Z,100873.08
2022-08-26T07:29:07.677Z,100874.42
2022-08-26T07:31:58.323Z,100877.98
2022-08-26T07:34:47.907Z,100878.37
2022-08-26T07:37:39.474Z,100873.72
2022-08-26T07:40:29.753Z,100875.64
2022-08-26T07:43:20.122Z,100876.53
2022-08-26T07:46:15.921Z,100876.14
2022-08-26T07:49:06.779Z,100869.89
2022-08-26T07:51:58.565Z,100871.12
2022-08-26T07:54:49.054Z,100870.29
2022-08-26T07:57:40.140Z,100874.30
2022-08-26T08:00:32.926Z,100877.63
2022-08-26T08:03:23.955Z,100879.64
2022-08-26T08:06:14.049Z,100880.44
2022-08-26T08:09:05.227Z,100882.94
2022-08-26T08:11:57.503Z,100889.34
2022-08-26T08:14:49.125Z,100891.58
2022-08-26T08:17:43.054Z,100896.98
2022-08-26T08:20:34.248Z,100897.38
2022-08-26T08:23:26.522Z,100896.31
2022-08-26T08:26:18.210Z,100898.03
2022-08-26T08:29:09.111Z,100897.80
2022-08-26T08:32:00.622Z,100903.18
2022-08-26T08:34:53.452Z,100901.81
2022-08-26T08:37:45.254Z,100902.77
2022-08-26T08:40:40.357Z,100907.48
2022-08-26T08:43:41.443Z,100910.84
2022-08-26T08:46:31.931Z,100912.66
2022-08-26T08:49:22.162Z,100918.88
2022-08-26T08:52:22.145Z,100914.82
2022-08-26T08:55:18.040Z,100911.02
2022-08-26T08:58:15.041Z,100911.86
2022-08-26T09:01:15.870Z,100919.20
2022-08-26T09:04:20.507Z,100921.46
2022-08-26T09:07:14.803Z,100922.88
2022-08-26T09:10:24.109Z,100918.36
2022-08-26T09:13:25.414Z,100918.27
2022-08-26T09:16:20.802Z,100918.13
2022-08-26T09:19:22.854Z,100918.90
2022-08-26T09:22:28.678Z,100922.06
2022-08-26T09:25:19.063Z,100917.71
2022-08-26T09:28:17.048Z,100919.31
2022-08-26T09:31:16.011Z,100918.60
2022-08-26T09:34:17.793Z,100921.48
2022-08-26T09:37:08.875Z,100920.40
2022-08-26T09:40:17.443Z,100915.79
2022-08-26T09:43:16.088Z,100913.27
2022-08-26T09:46:25.890Z,100912.67
2022-08-26T09:49:29.905Z,100912.65
2022-08-26T09:52:27.926Z,100909.52
2022-08-26T09:55:24.422Z,100907.02
2022-08-26T09:58:32.610Z,100907.23
2022-08-26T10:01:33.176Z,100898.04
2022-08-26T10:04:27.214Z,100896.42
2022-08-26T10:07:37.289Z,100893.89
2022-08-26T10:10:33.270Z,100887.29
2022-08-26T10:13:29.532Z,100883.55
2022-08-26T10:16:25.451Z,100881.11
2022-08-26T10:19:23.915Z,100880.48
2022-08-26T10:22:25.779Z,100879.33
2022-08-26T10:25:18.958Z,100880.34
2022-08-26T10:28:19.650Z,100880.40
2022-08-26T10:31:20.000Z,100871.60
2022-08-26T10:34:14.381Z,100874.94
2022-08-26T10:37:14.614Z,100873.37
2022-08-26T10:40:14.810Z,100867.10
2022-08-26T10:43:11.724Z,100862.39
2022-08-26T10:46:05.800Z,100857.29
2022-08-26T10:49:00.574Z,100856.77
2022-08-26T10:52:01.796Z,100853.98
2022-08-26T10:55:03.050Z,100856.63
2022-08-26T10:58:04.995Z,100854.23
2022-08-26T11:01:22.811Z,100857.42
2022-08-26T11:04:25.357Z,100854.55
2022-08-26T11:07:38.276Z,100847.89
2022-08-26T11:11:05.229Z,100851.10
2022-08-26T11:14:09.782Z,100844.61
2022-08-26T11:17:03.175Z,100843.89
2022-08-26T11:20:09.276Z,100840.09
2022-08-26T11:23:50.569Z,100839.80
2022-08-26T11:26:56.094Z,100838.70
2022-08-26T11:30:08.868Z,100841.36
2022-08-26T11:33:01.305Z,100842.24
2022-08-26T11:35:53.909Z,100838.20
2022-08-26T11:38:46.945Z,100829.56
2022-08-26T11:41:37.700Z,100823.93
2022-08-26T11:44:30.308Z,100825.36
2022-08-26T11:47:30.311Z,100821.09
2022-08-26T11:50:26.140Z,100822.66
2022-08-26T11:53:21.873Z,100826.18
2022-08-26T11:56:18.944Z,100824.14
2022-08-26T11:59:16.764Z,100820.36
2022-08-26T12:02:14.345Z,100813.14
2022-08-26T12:05:05.498Z,100807.32
2022-08-26T12:07:56.573Z,100812.02
2022-08-26T12:10:50.367Z,100813.70
2022-08-26T12:13:42.398Z,100813.90
2022-08-26T12:16:36.603Z,100815.08
2022-08-26T12:19:32.718Z,100818.27
2022-08-26T12:22:26.861Z,100817.20
2022-08-26T12:25:25.506Z,100817.61
2022-08-26T12:28:18.301Z,100809.16
2022-08-26T12:31:10.464Z,100811.75
2022-08-26T12:34:04.709Z,100805.16
2022-08-26T12:37:01.046Z,100801.56
2022-08-26T12:39:51.238Z,100798.48
2022-08-26T12:42:44.772Z,100798.71
2022-08-26T12:45:38.327Z,100802.40
2022-08-26T12:48:31.155Z,100806.21
2022-08-26T12:51:27.051Z,100804.52
2022-08-26T12:54:19.116Z,100800.83
2022-08-26T12:57:14.648Z,100800.70
2022-08-26T13:00:33.016Z,100794.98
2022-08-26T13:03:43.997Z,100799.02
2022-08-26T13:06:35.407Z,100804.40
2022-08-26T13:09:38.663Z,100798.93
2022-08-26T13:12:35.466Z,100795.98
2022-08-26T13:15:29.093Z,100797.30
2022-08-26T13:18:23.272Z,100804.94
2022-08-26T13:21:18.294Z,100803.95
2022-08-26T13:24:11.902Z,100801.72
2022-08-26T13:27:04.341Z,100806.25
2022-08-26T13:29:57.249Z,100814.52
2022-08-26T13:32:49.050Z,100809.75
2022-08-26T13:35:39.699Z,100796.36
2022-08-26T13:38:33.231Z,100791.71
2022-08-26T13:41:29.115Z,100797.20
2022-08-26T13:44:21.670Z,100789.83
2022-08-26T13:47:13.788Z,100783.07
2022-08-26T13:50:04.345Z,100779.13
2022-08-26T13:52:55.222Z,100780.63
2022-08-26T13:55:45.645Z,100773.94
2022-08-26T13:58:35.985Z,100774.20
2022-08-26T14:01:28.043Z,100775.10
2022-08-26T14:04:23.331Z,100781.15
2022-08-26T14:07:19.733Z,100778.46
2022-08-26T14:10:11.012Z,100774.11
2022-08-26T14:13:02.041Z,100767.70
2022-08-26T14:15:54.624Z,100759.45
2022-08-26T14:18:50.468Z,100748.27
2022-08-26T14:21:41.866Z,100743.58
2022-08-26T14:24:33.156Z,100736.18
2022-08-26T14:27:25.292Z,100732.81
2022-08-26T14:30:15.948Z,100732.52
2022-08-26T14:33:06.981Z,100734.36
2022-08-26T14:36:17.687Z,100740.33
2022-08-26T14:39:10.973Z,100747.13
2022-08-26T14:42:02.735Z,100751.14
2022-08-26T14:44:57.697Z,100756.21
2022-08-26T14:47:49.207Z,100764.88
2022-08-26T14:50:40.037Z,100769.55
2022-08-26T14:53:48.110Z,100777.50
2022-08-26T14:56:42.538Z,100776.49
2022-08-26T14:59:35.496Z,100776.28
2022-08-26T15:02:33.134Z,100774.58
2022-08-26T15:05:25.055Z,100771.05
2022-08-26T15:08:16.229Z,100758.59
2022-08-26T15:11:06.636Z,100754.96
2022-08-26T15:13:57.397Z,100746.96
2022-08-26T15:16:47.168Z,100747.02
2022-08-26T15:19:36.985Z,100741.49
2022-08-26T15:22:29.457Z,100742.30
2022-08-26T15:25:20.567Z,100742.50
2022-08-26T15:28:10.927Z,100736.57
2022-08-26T15:31:02.123Z,100725.46
2022-08-26T15:33:53.771Z,100721.91
2022-08-26T15:36:44.950Z,100729.38
2022-08-26T15:39:38.267Z,100726.16
2022-08-26T15:42:29.756Z,100730.27
2022-08-26T15:45:25.927Z,100729.77
2022-08-26T15:48:17.482Z,100724.84
2022-08-26T15:51:10.254Z,100718.68
2022-08-26T15:54:01.065Z,100713.04
2022-08-26T15:56:52.465Z,100711.48
2022-08-26T15:59:43.052Z,100714.42
2022-08-26T16:02:33.515Z,100713.52
2022-08-26T16:05:23.738Z,100715.20
2022-08-26T16:08:15.659Z,100714.98
2022-08-26T16:11:06.457Z,100709.68
2022-08-26T16:13:56.958Z,100711.93
2022-08-26T16:16:47.747Z,100715.06
2022-08-26T16:19:38.881Z,100717.84
2022-08-26T16:22:29.503Z,100719.23
2022-08-26T16:25:24.723Z,100720.36
2022-08-26T16:28:26.104Z,100714.86
2022-08-26T16:31:17.702Z,100704.09
2022-08-26T16:34:08.724Z,100700.11
2022-08-26T16:36:59.523Z,100695.04
2022-08-26T16:39:50.175Z,100692.17
2022-08-26T16:42:41.559Z,100693.48
2022-08-26T16:45:32.867Z,100687.49
2022-08-26T16:48:26.604Z,100675.83
2022-08-26T16:51:20.121Z,100660.14
2022-08-26T16:54:11.448Z,100648.98
2022-08-26T16:57:01.511Z,100655.38
2022-08-26T16:59:52.429Z,100671.33
2022-08-26T17:02:43.465Z,100680.29
2022-08-26T17:05:36.356Z,100689.18
2022-08-26T17:08:28.609Z,100693.87
2022-08-26T17:11:19.724Z,100683.61
2022-08-26T17:14:10.078Z,100673.60
2022-08-26T17:17:00.243Z,100669.98
2022-08-26T17:19:51.643Z,100673.83
2022-08-26T17:22:43.817Z,100680.21
2022-08-26T17:25:34.796Z,100681.92
2022-08-26T17:28:25.590Z,100680.91
2022-08-26T17:31:16.454Z,100679.70
2022-08-26T17:34:06.900Z,100681.37
2022-08-26T17:36:56.894Z,100677.55
2022-08-26T17:39:46.564Z,100670.74
2022-08-26T17:42:37.674Z,100664.71
2022-08-26T17:45:28.287Z,100666.64
2022-08-26T17:48:18.441Z,100669.09
2022-08-26T17:51:12.632Z,100675.08
2022-08-26T17:54:03.969Z,100676.88
2022-08-26T17:56:53.724Z,100677.06
2022-08-26T17:59:44.547Z,100676.13
2022-08-26T18:02:37.616Z,100681.27
2022-08-26T18:05:27.823Z,100681.98
2022-08-26T18:08:18.015Z,100690.63
2022-08-26T18:11:11.245Z,100688.05
2022-08-26T18:14:01.992Z,100689.70
2022-08-26T18:16:52.661Z,100690.23
2022-08-26T18:22:34.287Z,100680.81
2022-08-26T18:25:25.688Z,100674.63
2022-08-26T18:28:16.707Z,100675.84
2022-08-26T18:31:09.201Z,100673.95
2022-08-26T18:34:02.453Z,100675.35
2022-08-26T18:36:55.852Z,100666.14
2022-08-26T18:39:46.180Z,100661.20
2022-08-26T18:42:36.437Z,100658.89
2022-08-26T18:45:26.138Z,100663.85
2022-08-26T18:48:18.891Z,100663.16
2022-08-26T18:51:12.598Z,100662.88
2022-08-26T18:54:05.513Z,100668.20
2022-08-26T18:56:59.586Z,100664.30
2022-08-26T18:59:53.818Z,100666.42
2022-08-26T19:02:52.246Z,100665.20
2022-08-26T19:05:46.813Z,100662.98
2022-08-26T19:08:37.198Z,100661.92
2022-08-26T19:11:37.485Z,100664.55
2022-08-26T19:14:33.221Z,100670.14
2022-08-26T19:17:26.358Z,100671.56
2022-08-26T19:20:16.829Z,100669.02
2022-08-26T19:23:21.561Z,100664.02
2022-08-26T19:26:17.279Z,100670.95
2022-08-26T19:29:08.122Z,100668.30
2022-08-26T19:31:58.765Z,100665.92
2022-08-26T19:34:51.077Z,100664.59
2022-08-26T19:37:40.867Z,100669.82
2022-08-26T19:40:31.970Z,100665.97
2022-08-26T19:43:21.573Z,100667.39
2022-08-26T19:46:16.063Z,100675.04
2022-08-26T19:49:09.890Z,100670.70
2022-08-26T19:52:00.943Z,100670.94
2022-08-26T19:54:51.367Z,100672.69
2022-08-26T19:57:43.512Z,100671.02
2022-08-26T20:00:35.789Z,100670.69
2022-08-26T20:03:27.960Z,100668.36
2022-08-26T20:06:20.057Z,100664.60
2022-08-26T20:09:10.164Z,100660.05
2022-08-26T20:12:00.386Z,100657.23
2022-08-26T20:14:50.786Z,100657.33
2022-08-26T20:17:41.750Z,100652.52
2022-08-26T20:20:49.326Z,100654.33
2022-08-26T20:23:39.679Z,100654.55
2022-08-26T20:26:31.072Z,100655.67
2022-08-26T20:29:22.353Z,100653.38
2022-08-26T20:32:13.165Z,100648.73
2022-08-26T20:35:03.168Z,100646.14
2022-08-26T20:37:53.832Z,100645.62
2022-08-26T20:40:43.957Z,100640.31
2022-08-26T20:43:36.081Z,100636.43
2022-08-26T20:46:27.355Z,100633.32
2022-08-26T20:49:18.170Z,100632.82
2022-08-26T20:52:08.357Z,100628.41
2022-08-26T20:54:58.435Z,100627.75
2022-08-26T20:57:51.704Z,100625.77
2022-08-26T21:00:44.562Z,100632.04
2022-08-26T21:03:35.038Z,100637.77
2022-08-26T21:06:25.735Z,100639.89
2022-08-26T21:09:17.896Z,100647.67
2022-08-26T21:12:08.954Z,100647.61
2022-08-26T21:15:01.820Z,100657.96
2022-08-26T21:17:51.768Z,100661.98
2022-08-26T21:20:41.979Z,100664.36
2022-08-26T21:23:31.614Z,100666.43
2022-08-26T21:26:21.422Z,100671.20
2022-08-26T21:29:11.181Z,100674.41
2022-08-26T21:32:00.935Z,100683.27
2022-08-26T21:34:50.619Z,100683.95
2022-08-26T21:37:40.688Z,100681.02
2022-08-26T21:40:30.916Z,100683.82
2022-08-26T21:43:35.052Z,100678.98
2022-08-26T21:46:29.981Z,100681.45
2022-08-26T21:49:20.119Z,100683.38
2022-08-26T21:52:10.117Z,100679.67
2022-08-26T21:55:09.120Z,100678.36
2022-08-26T21:58:02.431Z,100676.90
2022-08-26T22:00:53.676Z,100673.81
2022-08-26T22:03:47.334Z,100674.38
2022-08-26T22:06:43.379Z,100675.25
2022-08-26T22:09:34.624Z,100682.16
2022-08-26T22:12:24.824Z,100687.83
2022-08-26T22:15:15.899Z,100690.67
2022-08-26T22:18:06.127Z,100693.59
2022-08-26T22:20:58.338Z,100699.08
2022-08-26T22:23:51.529Z,100700.91
2022-08-26T22:26:49.351Z,100697.86
2022-08-26T22:29:40.324Z,100699.07
2022-08-26T22:32:30.636Z,100695.68
2022-08-26T22:35:28.936Z,100697.42
2022-08-26T22:38:20.531Z,100698.35
2022-08-26T22:41:11.866Z,100698.55
2022-08-26T22:44:02.638Z,100699.34
2022-08-26T22:46:55.102Z,100698.59
2022-08-26T22:49:45.802Z,100695.86
2022-08-26T22:52:36.693Z,100697.47
2022-08-26T22:55:27.734Z,100696.95
2022-08-26T22:58:20.170Z,100700.38
2022-08-26T23:01:11.314Z,100699.81
2022-08-26T23:04:02.783Z,100704.83
2022-08-26T23:06:52.715Z,100703.67
2022-08-26T23:09:43.606Z,100700.69
2022-08-26T23:12:37.824Z,100700.00
2022-08-26T23:15:28.697Z,100703.54
2022-08-26T23:18:18.857Z,100705.80
2022-08-26T23:21:10.683Z,100702.84
2022-08-26T23:24:02.373Z,100697.01
2022-08-26T23:26:52.982Z,100690.83
2022-08-26T23:29:45.017Z,100681.58
2022-08-26T23:32:34.841Z,100679.83
2022-08-26T23:35:25.888Z,100679.84
2022-08-26T23:38:16.417Z,100679.56
2022-08-26T23:41:06.916Z,100689.15
2022-08-26T23:44:02.849Z,100688.54
2022-08-26T23:46:54.501Z,100689.80
2022-08-26T23:49:45.323Z,100687.59
2022-08-26T23:52:53.221Z,100682.05
2022-08-26T23:55:43.618Z,100679.36
2022-08-26T23:58:34.034Z,100672.58
